createdAt,value
2022-10-19T00:02:27.089Z,100896
2022-10-19T00:07:27.053Z,100887
2022-10-19T00:12:27.285Z,100881
2022-10-19T00:17:27.029Z,100873
2022-10-19T00:22:27.068Z,100870
2022-10-19T00:27:27.132Z,100861
2022-10-19T00:32:27.224Z,100854
2022-10-19T00:37:27.421Z,100846
2022-10-19T00:42:27.161Z,100845
2022-10-19T00:47:27.437Z,100840
2022-10-19T00:52:27.163Z,100840
2022-10-19T00:57:27.307Z,100825
2022-10-19T01:02:27.103Z,100825
2022-10-19T01:07:27.277Z,100815
2022-10-19T01:12:27.065Z,100818
2022-10-19T01:17:27.244Z,100804
2022-10-19T01:22:27.362Z,100798
2022-10-19T01:27:27.176Z,100791
2022-10-19T01:32:27.356Z,100787
2022-10-19T01:37:27.464Z,100784
2022-10-19T01:42:27.411Z,100784
2022-10-19T01:47:27.129Z,100788
2022-10-19T01:52:27.297Z,100784
2022-10-19T01:57:27.090Z,100784
2022-10-19T02:02:27.251Z,100780
2022-10-19T02:07:27.407Z,100781
2022-10-19T02:12:27.232Z,100781
2022-10-19T02:17:27.255Z,100787
2022-10-19T02:22:27.187Z,100787
2022-10-19T02:27:27.328Z,100787
2022-10-19T02:32:27.149Z,100787
2022-10-19T02:37:27.208Z,100783
2022-10-19T02:42:27.156Z,100783
2022-10-19T02:47:27.094Z,100773
2022-10-19T02:52:27.426Z,100772
2022-10-19T02:57:27.123Z,100774
2022-10-19T03:02:27.106Z,100777
2022-10-19T03:07:27.121Z,100782
2022-10-19T03:12:27.134Z,100789
2022-10-19T03:17:27.140Z,100776
2022-10-19T03:22:27.413Z,100776
2022-10-19T03:27:27.335Z,100775
2022-10-19T03:32:27.309Z,100782
2022-10-19T03:37:27.440Z,100777
2022-10-19T03:42:27.432Z,100787
2022-10-19T03:47:27.413Z,100788
2022-10-19T03:52:27.110Z,100785
2022-10-19T03:57:27.363Z,100798
2022-10-19T04:02:27.215Z,100784
2022-10-19T04:07:27.403Z,100783
2022-10-19T04:12:27.166Z,100782
2022-10-19T04:17:27.318Z,100782
2022-10-19T04:22:27.468Z,100779
2022-10-19T04:27:27.269Z,100779
2022-10-19T04:32:27.415Z,100770
2022-10-19T04:37:27.263Z,100781
2022-10-19T04:42:27.386Z,100773
2022-10-19T04:47:27.202Z,100780
2022-10-19T04:52:27.383Z,100780
2022-10-19T04:57:27.173Z,100777
2022-10-19T05:02:27.361Z,100780
2022-10-19T05:07:27.491Z,100782
2022-10-19T05:12:27.293Z,100784
2022-10-19T05:22:27.296Z,100794
2022-10-19T05:27:27.415Z,100805
2022-10-19T05:32:27.235Z,100809
2022-10-19T05:37:27.395Z,100827
2022-10-19T05:42:27.225Z,100831
2022-10-19T05:47:30.285Z,100831
2022-10-19T05:52:27.534Z,100823
2022-10-19T05:57:27.174Z,100825
2022-10-19T06:02:27.196Z,100839
2022-10-19T06:07:27.208Z,100841
2022-10-19T06:12:27.160Z,100843
2022-10-19T06:17:27.216Z,100853
2022-10-19T06:22:27.374Z,100858
2022-10-19T06:27:27.303Z,100863
2022-10-19T06:32:27.638Z,100876
2022-10-19T06:37:27.529Z,100876
2022-10-19T06:42:27.381Z,100872
2022-10-19T06:47:27.503Z,100872
2022-10-19T06:52:27.335Z,100890
2022-10-19T06:57:27.478Z,100897
2022-10-19T07:02:27.287Z,100900
2022-10-19T07:07:27.479Z,100900
2022-10-19T07:12:27.238Z,100922
2022-10-19T07:17:27.410Z,100919
2022-10-19T07:22:28.258Z,100932
2022-10-19T07:27:27.301Z,100937
2022-10-19T07:32:27.769Z,100937
2022-10-19T07:37:27.356Z,100946
2022-10-19T07:42:27.492Z,100941
2022-10-19T07:47:27.323Z,100943
2022-10-19T07:52:27.461Z,100933
2022-10-19T07:57:27.266Z,100935
2022-10-19T08:02:34.908Z,100926
2022-10-19T08:07:27.554Z,100926
2022-10-19T08:12:27.412Z,100923
2022-10-19T08:17:27.548Z,100928
2022-10-19T08:22:27.343Z,100926
2022-10-19T08:27:27.569Z,100922
2022-10-19T08:32:27.322Z,100929
2022-10-19T08:37:40.835Z,100929
2022-10-19T08:42:27.295Z,100933
2022-10-19T08:47:27.703Z,100933
2022-10-19T08:52:30.778Z,100938
2022-10-19T08:57:27.425Z,100930
2022-10-19T09:02:27.282Z,100924
2022-10-19T09:07:27.353Z,100917
2022-10-19T09:12:27.299Z,100917
2022-10-19T09:32:27.382Z,100923
2022-10-19T09:42:27.611Z,100922
2022-10-19T09:47:27.289Z,100928
2022-10-19T09:52:27.326Z,100920
2022-10-19T09:57:27.327Z,100919
2022-10-19T10:02:27.368Z,100915
2022-10-19T10:07:27.333Z,100915
2022-10-19T10:12:27.313Z,100900
2022-10-19T10:17:27.311Z,100895
2022-10-19T10:22:27.820Z,100895
2022-10-19T10:27:27.327Z,100892
2022-10-19T10:32:27.304Z,100873
2022-10-19T10:37:27.654Z,100873
2022-10-19T10:42:27.443Z,100871
2022-10-19T10:47:27.411Z,100866
2022-10-19T10:52:27.463Z,100857
2022-10-19T10:57:27.355Z,100857
2022-10-19T11:02:27.318Z,100836
2022-10-19T11:07:27.365Z,100834
2022-10-19T11:12:30.437Z,100834
2022-10-19T11:17:27.372Z,100820
2022-10-19T11:22:27.654Z,100818
2022-10-19T11:27:27.505Z,100807
2022-10-19T11:32:27.643Z,100803
2022-10-19T11:37:27.326Z,100796
2022-10-19T11:42:27.569Z,100796
2022-10-19T11:47:27.363Z,100796
2022-10-19T11:52:27.631Z,100798
2022-10-19T11:57:27.414Z,100791
2022-10-19T12:02:27.442Z,100791
2022-10-19T12:07:27.384Z,100786
2022-10-19T12:12:27.519Z,100768
2022-10-19T12:17:27.366Z,100768
2022-10-19T12:22:27.465Z,100775
2022-10-19T12:27:27.632Z,100777
2022-10-19T12:32:27.360Z,100777
2022-10-19T12:37:27.909Z,100766
2022-10-19T12:42:27.375Z,100758
2022-10-19T12:47:27.396Z,100758
2022-10-19T12:52:27.408Z,100748
2022-10-19T12:57:27.399Z,100748
2022-10-19T13:02:27.479Z,100745
2022-10-19T13:07:27.510Z,100740
2022-10-19T13:12:27.400Z,100742
2022-10-19T13:17:30.637Z,100732
2022-10-19T13:22:27.413Z,100732
2022-10-19T13:27:27.455Z,100746
2022-10-19T13:32:27.393Z,100741
2022-10-19T13:37:31.287Z,100748
2022-10-19T13:47:27.466Z,100750
2022-10-19T13:52:27.512Z,100740
2022-10-19T13:57:27.430Z,100742
2022-10-19T14:02:27.417Z,100743
2022-10-19T14:07:27.661Z,100744
2022-10-19T14:12:27.485Z,100760
2022-10-19T14:17:27.418Z,100749
2022-10-19T14:22:27.756Z,100755
2022-10-19T14:27:27.580Z,100755
2022-10-19T14:32:27.523Z,100747
2022-10-19T14:37:27.453Z,100745
2022-10-19T14:42:27.661Z,100750
2022-10-19T14:47:27.459Z,100745
2022-10-19T14:57:27.479Z,100745
2022-10-19T15:02:27.583Z,100734
2022-10-19T15:07:27.428Z,100748
2022-10-19T15:12:27.629Z,100754
2022-10-19T15:17:27.461Z,100766
2022-10-19T15:22:27.470Z,100766
2022-10-19T15:27:27.578Z,100770
2022-10-19T15:32:27.494Z,100759
2022-10-19T15:37:27.680Z,100769
2022-10-19T15:42:27.819Z,100769
2022-10-19T15:47:27.481Z,100775
2022-10-19T15:52:27.795Z,100780
2022-10-19T15:57:27.617Z,100778
2022-10-19T16:02:27.464Z,100781
2022-10-19T16:07:27.573Z,100788
2022-10-19T16:12:27.504Z,100788
2022-10-19T16:17:27.517Z,100810
2022-10-19T16:22:28.495Z,100826
2022-10-19T16:27:27.878Z,100825
2022-10-19T16:32:27.460Z,100813
2022-10-19T16:37:28.043Z,100813
2022-10-19T16:42:30.408Z,100805
2022-10-19T16:47:27.711Z,100821
2022-10-19T16:52:27.606Z,100842
2022-10-19T17:02:27.570Z,100838
2022-10-19T17:07:27.769Z,100852
2022-10-19T17:12:27.861Z,100854
2022-10-19T17:17:27.755Z,100858
2022-10-19T17:22:27.791Z,100858
2022-10-19T17:32:27.761Z,100851
2022-10-19T17:37:27.645Z,100851
2022-10-19T17:42:28.049Z,100873
2022-10-19T17:47:27.749Z,100873
2022-10-19T17:52:28.024Z,100884
2022-10-19T17:57:29.769Z,100898
2022-10-19T18:02:28.509Z,100915
2022-10-19T18:12:28.197Z,100904
2022-10-19T18:17:27.943Z,100910
2022-10-19T18:22:27.907Z,100917
2022-10-19T18:27:27.868Z,100930
2022-10-19T18:32:27.781Z,100930
2022-10-19T18:37:28.129Z,100935
2022-10-19T18:42:27.760Z,100931
2022-10-19T18:47:27.829Z,100955
2022-10-19T18:52:28.315Z,100952
2022-10-19T18:57:31.588Z,100952
2022-10-19T19:02:35.280Z,100954
2022-10-19T19:07:28.397Z,100975
2022-10-19T19:12:28.052Z,100975
2022-10-19T19:17:27.843Z,100975
2022-10-19T19:22:27.829Z,100955
2022-10-19T19:27:31.546Z,100949
2022-10-19T19:32:27.872Z,100971
2022-10-19T19:37:27.867Z,100971
2022-10-19T19:42:28.067Z,100971
2022-10-19T19:47:27.596Z,100986
2022-10-19T19:52:27.988Z,101009
2022-10-19T19:57:27.849Z,101006
2022-10-19T20:02:27.804Z,101000
2022-10-19T20:07:27.894Z,101000
2022-10-19T20:12:28.074Z,101015
2022-10-19T20:17:27.721Z,101026
2022-10-19T20:22:28.087Z,101026
2022-10-19T20:27:27.988Z,101022
2022-10-19T20:32:27.830Z,101035
2022-10-19T20:37:28.881Z,101041
2022-10-19T20:42:27.856Z,101048
2022-10-19T20:47:27.832Z,101052
2022-10-19T20:52:27.985Z,101047
2022-10-19T20:57:28.109Z,101046
2022-10-19T21:02:27.814Z,101055
2022-10-19T21:07:27.923Z,101055
2022-10-19T21:12:27.769Z,101069
2022-10-19T21:17:27.675Z,101059
2022-10-19T21:22:27.631Z,101057
2022-10-19T21:27:27.844Z,101066
2022-10-19T21:32:27.653Z,101069
2022-10-19T21:37:27.837Z,101069
2022-10-19T21:42:27.624Z,101080
2022-10-19T21:47:27.644Z,101077
2022-10-19T21:52:27.647Z,101086
2022-10-19T21:57:27.742Z,101091
2022-10-19T22:02:27.671Z,101091
2022-10-19T22:07:27.671Z,101092
2022-10-19T22:17:27.962Z,101087
2022-10-19T22:22:27.832Z,101089
2022-10-19T22:27:27.786Z,101079
2022-10-19T22:32:27.646Z,101079
2022-10-19T22:37:27.964Z,101087
2022-10-19T22:42:27.662Z,101087
2022-10-19T22:52:27.733Z,101084
2022-10-19T22:57:27.876Z,101081
2022-10-19T23:02:27.689Z,101078
2022-10-19T23:07:27.686Z,101090
2022-10-19T23:12:28.014Z,101089
2022-10-19T23:17:27.699Z,101094
2022-10-19T23:27:27.761Z,101102
2022-10-19T23:32:27.660Z,101114
2022-10-19T23:37:27.788Z,101109
2022-10-19T23:42:27.900Z,101109
2022-10-19T23:47:27.686Z,101115
2022-10-19T23:52:27.659Z,101115
2022-10-19T23:57:28.035Z,101129
